Time;durP1;ratioP1;P1;durP2;ratioP2;P2;SDS_P1;SDS_P2;PMS_P1;PMS_P2;Temp;Humidity;BMP_temperature;BMP_pressure;BME280_temperature;BME280_humidity;BME280_pressure;Samples;Min_cycle;Max_cycle;Signal;HPM_P1;HPM_P2
2024/01/21 05:22:33;;;;;;;18.52;9.00;;;;;;;-4.74;100.00;101467.00;5090122;28;20109;-35
2024/01/21 05:24:59;;;;;;;14.30;8.75;;;;;;;-4.90;100.00;101465.72;5092172;28;20454;-34
2024/01/21 05:27:24;;;;;;;15.57;6.95;;;;;;;-4.85;100.00;101463.84;5102764;28;20064;-34
2024/01/21 05:29:50;;;;;;;16.50;8.77;;;;;;;-4.78;100.00;101460.16;5099691;28;20143;-35
2024/01/21 05:32:15;;;;;;;20.05;10.23;;;;;;;-4.95;100.00;101465.88;5088405;28;20044;-34
2024/01/21 05:34:40;;;;;;;13.95;8.48;;;;;;;-4.70;100.00;101462.53;5089097;28;20470;-35
2024/01/21 05:37:06;;;;;;;16.98;8.98;;;;;;;-4.94;100.00;101456.34;5087655;28;20451;-35
2024/01/21 05:39:34;;;;;;;16.75;9.00;;;;;;;-4.96;100.00;101458.09;5088836;28;20043;-35
2024/01/21 05:42:01;;;;;;;18.80;9.63;;;;;;;-4.99;100.00;101455.63;5088923;28;20381;-35
2024/01/21 05:44:26;;;;;;;17.60;9.02;;;;;;;-4.91;100.00;101443.25;5088903;28;20036;-34
2024/01/21 05:46:51;;;;;;;13.93;7.45;;;;;;;-5.51;100.00;101457.09;5088613;28;20039;-34
2024/01/21 05:49:17;;;;;;;20.88;9.88;;;;;;;-5.60;100.00;101457.34;5088823;28;20028;-35
2024/01/21 05:51:42;;;;;;;13.20;8.57;;;;;;;-5.57;100.00;101452.91;5088971;28;20722;-35
2024/01/21 05:54:07;;;;;;;18.63;8.82;;;;;;;-5.52;100.00;101453.66;5088678;28;20032;-34
2024/01/21 05:56:33;;;;;;;15.82;8.57;;;;;;;-5.32;100.00;101452.25;5088388;28;20036;-35
2024/01/21 05:58:58;;;;;;;17.00;9.35;;;;;;;-5.34;100.00;101443.66;5088502;28;20166;-35
2024/01/21 06:01:24;;;;;;;16.92;7.82;;;;;;;-5.81;100.00;101446.63;5088507;28;20392;-34
2024/01/21 06:03:49;;;;;;;17.05;9.25;;;;;;;-5.76;100.00;101436.97;5088675;28;20040;-33
2024/01/21 06:06:15;;;;;;;21.20;12.32;;;;;;;-5.81;100.00;101431.03;5088633;28;20063;-34
2024/01/21 06:08:40;;;;;;;22.90;9.48;;;;;;;-5.78;100.00;101443.97;5088249;28;20036;-37
2024/01/21 06:11:05;;;;;;;20.70;9.60;;;;;;;-5.82;100.00;101434.53;5088471;28;20024;-36
2024/01/21 06:13:31;;;;;;;16.05;8.23;;;;;;;-5.75;100.00;101432.63;5088515;28;20480;-37
2024/01/21 06:16:00;;;;;;;15.57;8.77;;;;;;;-5.78;100.00;101433.56;5088396;28;20059;-36
2024/01/21 06:18:25;;;;;;;16.52;8.13;;;;;;;-5.71;100.00;101436.84;5088082;28;20036;-35
2024/01/21 06:20:50;;;;;;;18.52;9.00;;;;;;;-5.56;100.00;101435.59;5087761;28;20131;-36
2024/01/21 06:23:16;;;;;;;18.05;9.07;;;;;;;-5.85;100.00;101445.00;5087941;28;20036;-36
2024/01/21 06:25:41;;;;;;;17.33;10.23;;;;;;;-5.50;100.00;101444.06;5087910;28;20043;-34
2024/01/21 06:28:07;;;;;;;14.60;8.70;;;;;;;-5.48;100.00;101447.47;5087690;28;20048;-36
2024/01/21 06:30:32;;;;;;;18.00;8.68;;;;;;;-5.49;100.00;101460.47;5087710;28;20036;-36
2024/01/21 06:32:58;;;;;;;16.02;9.10;;;;;;;-5.64;100.00;101466.09;5078584;28;20040;-34
2024/01/21 06:35:23;;;;;;;14.82;8.23;;;;;;;-5.57;100.00;101462.44;5074150;28;20045;-36
2024/01/21 06:37:48;;;;;;;14.10;8.43;;;;;;;-5.79;100.00;101468.22;5074075;28;20044;-34
2024/01/21 06:40:14;;;;;;;18.85;9.18;;;;;;;-5.75;100.00;101466.38;5073933;28;20045;-34
2024/01/21 06:42:39;;;;;;;13.60;8.02;;;;;;;-5.73;100.00;101467.22;5074127;28;20067;-35
2024/01/21 06:45:05;;;;;;;15.88;8.65;;;;;;;-6.07;100.00;101468.06;5074022;28;20032;-35
2024/01/21 06:47:30;;;;;;;16.02;8.38;;;;;;;-6.08;100.00;101474.16;5073950;28;20044;-35
2024/01/21 06:49:56;;;;;;;16.80;8.25;;;;;;;-6.10;100.00;101477.69;5073939;28;20090;-34
2024/01/21 06:52:23;;;;;;;12.73;7.63;;;;;;;-6.21;100.00;101471.91;5074018;28;20520;-36
2024/01/21 06:54:48;;;;;;;20.48;9.82;;;;;;;-6.29;100.00;101467.75;5073719;28;20036;-36
2024/01/21 06:57:14;;;;;;;13.50;7.22;;;;;;;-6.28;100.00;101473.78;5071685;28;20048;-35
2024/01/21 06:59:39;;;;;;;13.50;7.15;;;;;;;-6.31;100.00;101464.34;5074009;28;20033;-36
2024/01/21 07:02:05;;;;;;;9.95;6.28;;;;;;;-6.35;100.00;101459.28;5072403;28;20416;-36
2024/01/21 07:04:30;;;;;;;12.32;6.72;;;;;;;-6.38;100.00;101457.59;5074026;28;20496;-35
2024/01/21 07:06:55;;;;;;;12.82;7.53;;;;;;;-5.98;100.00;101461.81;5072548;28;20064;-35
2024/01/21 07:09:21;;;;;;;11.15;6.85;;;;;;;-5.86;100.00;101461.47;5073813;28;20036;-37
2024/01/21 07:11:46;;;;;;;13.93;7.53;;;;;;;-5.59;100.00;101457.31;5073766;28;20074;-31
2024/01/21 07:14:13;;;;;;;15.18;7.35;;;;;;;-5.67;100.00;101463.56;5073610;28;20036;-34
2024/01/21 07:16:39;;;;;;;13.27;7.15;;;;;;;-5.62;100.00;101465.16;5073551;28;20040;-34
2024/01/21 07:19:04;;;;;;;11.70;7.18;;;;;;;-5.43;100.00;101465.50;5073595;28;20163;-34
2024/01/21 07:21:30;;;;;;;15.13;8.65;;;;;;;-5.22;100.00;101467.53;5073298;28;20554;-34
2024/01/21 07:23:55;;;;;;;13.75;8.05;;;;;;;-5.33;100.00;101474.78;5066934;28;20051;-35
2024/01/21 07:26:23;;;;;;;15.07;7.68;;;;;;;-5.29;100.00;101478.97;5073419;28;20036;-34
2024/01/21 07:28:49;;;;;;;16.13;8.30;;;;;;;-5.20;100.00;101475.28;5072895;28;20051;-33
2024/01/21 07:31:14;;;;;;;17.70;9.27;;;;;;;-5.32;100.00;101473.88;5055854;28;20041;-35
2024/01/21 07:33:39;;;;;;;5.63;3.90;;;;;;;7.65;100.00;101476.06;5053614;28;20037;-32
2024/01/21 07:36:05;;;;;;;26.23;9.68;;;;;;;10.64;100.00;101461.44;5053171;28;20146;-31
2024/01/21 07:38:31;;;;;;;14.07;7.75;;;;;;;10.37;89.88;101460.38;5053187;28;20496;-31
2024/01/21 07:40:56;;;;;;;24.10;11.95;;;;;;;10.54;80.37;101440.97;5053179;28;20094;-33
2024/01/21 07:43:22;;;;;;;18.90;10.00;;;;;;;9.86;71.85;101450.84;5053165;28;20041;-32
2024/01/21 07:45:47;;;;;;;16.92;8.88;;;;;;;-0.36;74.32;101467.22;5052520;28;20393;-42
2024/01/21 07:48:12;;;;;;;17.08;8.70;;;;;;;-3.78;97.17;101491.69;5052741;28;20131;-35
2024/01/21 07:50:38;;;;;;;14.40;8.25;;;;;;;-3.92;100.00;101489.50;5053072;28;20036;-35
2024/01/21 07:53:05;;;;;;;14.43;7.45;;;;;;;-3.66;100.00;101486.03;5052970;28;20041;-35
2024/01/21 07:55:31;;;;;;;14.48;8.70;;;;;;;-3.68;100.00;101493.06;5052915;28;20095;-35
2024/01/21 07:57:56;;;;;;;13.65;7.25;;;;;;;-4.51;100.00;101488.84;5052629;28;20048;-34
2024/01/21 08:00:22;;;;;;;11.93;7.65;;;;;;;-4.26;100.00;101488.91;5055521;28;20404;-34
2024/01/21 08:02:48;;;;;;;13.23;7.75;;;;;;;-4.41;100.00;101490.25;5074384;28;20464;-35
2024/01/21 08:05:13;;;;;;;11.07;7.15;;;;;;;-4.14;100.00;101489.38;5072754;28;20526;-33
2024/01/21 08:07:38;;;;;;;13.63;8.13;;;;;;;-4.23;100.00;101500.09;5080485;28;20044;-32
2024/01/21 08:10:04;;;;;;;16.48;8.73;;;;;;;-4.42;100.00;101498.97;5072273;28;20077;-33
2024/01/21 08:12:30;;;;;;;16.40;9.02;;;;;;;-4.16;100.00;101500.75;5072317;28;20073;-33
2024/01/21 08:14:55;;;;;;;21.05;10.23;;;;;;;-4.08;100.00;101497.91;5073006;28;20500;-34
2024/01/21 08:17:21;;;;;;;18.85;10.43;;;;;;;-3.91;100.00;101495.59;5071924;28;20039;-36
2024/01/21 08:19:46;;;;;;;19.00;9.93;;;;;;;-4.20;100.00;101510.41;5078816;28;20051;-33
2024/01/21 08:22:12;;;;;;;20.50;9.40;;;;;;;-3.85;100.00;101513.59;5071620;28;20045;-37
2024/01/21 08:24:37;;;;;;;16.35;9.48;;;;;;;-3.85;100.00;101518.81;5071924;28;20044;-34
2024/01/21 08:27:03;;;;;;;17.92;9.18;;;;;;;-3.60;100.00;101517.09;5071676;28;20090;-34
2024/01/21 08:29:28;;;;;;;16.02;8.95;;;;;;;-3.89;100.00;101504.22;5071939;28;20037;-33
2024/01/21 08:31:56;;;;;;;17.38;9.52;;;;;;;-3.80;100.00;101492.63;5071900;28;20032;-35
2024/01/21 08:34:22;;;;;;;18.13;10.55;;;;;;;-3.85;100.00;101490.16;5071984;28;20055;-36
2024/01/21 08:36:50;;;;;;;20.00;9.93;;;;;;;-3.69;100.00;101486.16;5071576;28;20041;-35
2024/01/21 08:39:15;;;;;;;15.38;8.63;;;;;;;-3.48;100.00;101483.72;5071752;28;20119;-32
2024/01/21 08:41:41;;;;;;;13.93;8.25;;;;;;;-3.68;100.00;101487.84;5071671;28;20039;-34
2024/01/21 08:44:07;;;;;;;15.95;7.65;;;;;;;-3.84;100.00;101491.91;5071711;28;20404;-37
2024/01/21 08:46:32;;;;;;;11.63;7.40;;;;;;;-3.70;100.00;101494.03;5071594;28;20066;-44
2024/01/21 08:48:57;;;;;;;15.45;9.07;;;;;;;-4.04;100.00;101483.88;5071833;28;20357;-38
2024/01/21 08:51:23;;;;;;;15.50;8.68;;;;;;;-4.03;100.00;101483.00;5085502;28;20035;-37
2024/01/21 08:53:55;;;;;;;13.27;8.32;;;;;;;-3.42;100.00;101478.28;5092126;28;20040;-36
2024/01/21 08:56:23;;;;;;;16.67;8.25;;;;;;;-3.76;100.00;101483.81;5091568;28;20039;-38
2024/01/21 08:58:49;;;;;;;13.27;7.68;;;;;;;-3.36;100.00;101483.28;5083486;28;20039;-40
2024/01/21 09:01:15;;;;;;;15.07;7.57;;;;;;;-3.88;100.00;101500.69;5071915;28;20468;-39
2024/01/21 09:03:41;;;;;;;12.88;7.00;;;;;;;-3.89;100.00;101505.06;5071957;28;20047;-36
2024/01/21 09:06:06;;;;;;;15.60;7.78;;;;;;;-3.43;100.00;101503.50;5071776;28;20029;-36
2024/01/21 09:08:31;;;;;;;11.50;6.95;;;;;;;-3.55;100.00;101499.56;5071424;28;20420;-35
2024/01/21 09:10:57;;;;;;;10.82;6.82;;;;;;;-3.36;100.00;101497.16;5071728;28;20063;-34
2024/01/21 09:13:22;;;;;;;10.20;6.60;;;;;;;-3.11;100.00;101489.31;5071712;28;20412;-38
2024/01/21 09:15:48;;;;;;;12.50;6.15;;;;;;;-3.32;100.00;101490.09;5071695;28;20037;-34
2024/01/21 09:18:13;;;;;;;12.60;6.38;;;;;;;-3.43;100.00;101493.06;5071452;28;20114;-34
2024/01/21 09:20:39;;;;;;;9.50;6.90;;;;;;;-3.37;100.00;101499.81;5071298;28;20037;-35
2024/01/21 09:23:04;;;;;;;9.15;6.22;;;;;;;-3.12;100.00;101513.69;5071456;28;20036;-41
2024/01/21 09:25:29;;;;;;;12.43;6.85;;;;;;;-2.81;100.00;101521.22;5067216;28;20601;-34
2024/01/21 09:27:55;;;;;;;11.88;6.22;;;;;;;-3.10;100.00;101527.50;5059425;28;20557;-36
2024/01/21 09:30:20;;;;;;;11.55;7.50;;;;;;;-3.36;100.00;101535.41;5061952;28;20127;-35
2024/01/21 09:32:46;;;;;;;10.63;6.75;;;;;;;-2.99;100.00;101514.09;5058870;28;20028;-36
2024/01/21 09:35:11;;;;;;;13.52;7.25;;;;;;;-3.07;100.00;101496.09;5061322;28;20028;-35
2024/01/21 09:37:36;;;;;;;12.30;7.53;;;;;;;-3.40;100.00;101498.16;5061201;28;20048;-35
2024/01/21 09:40:03;;;;;;;14.32;7.90;;;;;;;-3.45;100.00;101502.69;5058515;28;20037;-35
2024/01/21 09:42:29;;;;;;;11.40;6.57;;;;;;;-2.82;100.00;101501.25;5061375;28;20449;-37
2024/01/21 09:44:54;;;;;;;12.30;6.97;;;;;;;-3.21;100.00;101508.78;5050028;28;20029;-34
2024/01/21 09:47:20;;;;;;;9.93;6.50;;;;;;;-2.75;100.00;101494.06;5059800;28;20032;-34
2024/01/21 09:49:47;;;;;;;11.48;7.57;;;;;;;-2.16;100.00;101497.84;5061883;28;20029;-34
2024/01/21 09:52:14;;;;;;;12.80;7.55;;;;;;;-2.05;100.00;101486.06;5060600;28;20040;-33
2024/01/21 09:54:40;;;;;;;11.48;7.35;;;;;;;-2.09;100.00;101502.75;5058673;28;20033;-33
2024/01/21 09:57:07;;;;;;;14.88;7.65;;;;;;;-1.91;100.00;101488.97;5061529;28;20090;-34
2024/01/21 09:59:32;;;;;;;12.70;8.15;;;;;;;-2.09;100.00;101494.09;5060437;28;20045;-33
2024/01/21 10:01:58;;;;;;;11.32;7.38;;;;;;;-1.81;100.00;101507.72;5060075;28;20040;-36
2024/01/21 10:04:23;;;;;;;12.75;7.40;;;;;;;-2.00;100.00;101506.78;5061591;28;20113;-36
2024/01/21 10:06:51;;;;;;;11.73;7.53;;;;;;;-2.47;100.00;101502.53;5059884;28;20166;-34
2024/01/21 10:09:23;;;;;;;12.95;8.00;;;;;;;-1.77;100.00;101504.06;5066832;28;20072;-36
2024/01/21 10:11:53;;;;;;;11.10;7.70;;;;;;;-1.73;100.00;101504.78;5062159;28;20086;-34
2024/01/21 10:14:18;;;;;;;13.50;7.65;;;;;;;-2.07;100.00;101500.13;5057411;28;20025;-33
2024/01/21 10:16:44;;;;;;;10.07;7.03;;;;;;;-1.43;100.00;101476.53;5057493;28;20040;-36
2024/01/21 10:19:24;;;;;;;12.48;7.57;;;;;;;-2.21;100.00;101485.84;5058890;28;20081;-37
2024/01/21 10:21:50;;;;;;;13.10;7.80;;;;;;;-1.56;100.00;101486.66;5068634;28;20044;-34
2024/01/21 10:24:19;;;;;;;12.38;7.40;;;;;;;-2.75;100.00;101489.69;5067832;28;20105;-36
2024/01/21 10:26:45;;;;;;;13.75;7.90;;;;;;;-1.93;100.00;101501.25;5067739;28;20043;-34
2024/01/21 10:29:11;;;;;;;13.27;7.60;;;;;;;-1.16;100.00;101543.28;5065014;28;20065;-35
2024/01/21 10:31:36;;;;;;;14.95;8.27;;;;;;;-0.67;100.00;101574.25;5064022;28;20079;-35
2024/01/21 10:34:02;;;;;;;12.90;7.75;;;;;;;-0.44;100.00;101594.19;5068454;28;20036;-36
2024/01/21 10:36:32;;;;;;;10.63;7.35;;;;;;;-0.62;100.00;101615.03;5067504;28;20041;-39
2024/01/21 10:39:01;;;;;;;13.63;8.60;;;;;;;-1.08;100.00;101624.03;5066435;28;20452;-36
2024/01/21 10:41:33;;;;;;;12.63;7.78;;;;;;;-0.73;100.00;101621.63;5070123;28;20052;-35
2024/01/21 10:44:01;;;;;;;14.90;8.02;;;;;;;-0.80;100.00;101625.44;5066230;28;20033;-34
2024/01/21 10:46:31;;;;;;;14.80;7.85;;;;;;;-0.78;100.00;101627.09;5066271;28;20036;-34
2024/01/21 10:48:57;;;;;;;11.02;7.88;;;;;;;-0.65;100.00;101619.56;5066523;28;20548;-35
2024/01/21 10:51:22;;;;;;;12.40;8.13;;;;;;;-0.88;100.00;101610.09;5069482;28;20512;-34
2024/01/21 10:53:52;;;;;;;12.57;8.57;;;;;;;-1.04;100.00;101624.72;5066871;28;20108;-36
2024/01/21 10:56:20;;;;;;;11.73;8.45;;;;;;;-0.90;100.00;101628.47;5066926;28;20029;-33
2024/01/21 10:58:49;;;;;;;13.68;8.02;;;;;;;-0.77;100.00;101636.63;5065871;28;20036;-37
2024/01/21 11:01:21;;;;;;;13.82;8.82;;;;;;;-1.08;100.00;101617.94;5067292;28;20029;-35
2024/01/21 11:03:48;;;;;;;12.98;8.20;;;;;;;-0.94;100.00;101624.28;5067181;28;20500;-35
2024/01/21 11:06:15;;;;;;;13.25;7.60;;;;;;;-0.86;100.00;101611.72;5064673;28;20029;-36
2024/01/21 11:08:45;;;;;;;14.60;8.73;;;;;;;-0.56;100.00;101592.97;5066366;28;20043;-38
2024/01/21 11:11:13;;;;;;;13.13;8.30;;;;;;;-0.74;100.00;101597.25;5065636;28;20481;-40
2024/01/21 11:13:43;;;;;;;15.73;8.82;;;;;;;-0.13;100.00;101588.34;5069398;28;20106;-35
2024/01/21 11:16:11;;;;;;;10.98;7.10;;;;;;;-0.03;96.44;101576.53;5063735;28;20041;-39
2024/01/21 11:18:36;;;;;;;11.75;8.43;;;;;;;0.92;92.80;101579.69;5065932;28;20642;-34
2024/01/21 11:21:02;;;;;;;14.07;8.00;;;;;;;0.96;91.38;101557.59;5064645;28;20044;-35
2024/01/21 11:23:28;;;;;;;12.18;8.70;;;;;;;0.98;91.99;101547.91;5065589;28;20036;-35
2024/01/21 11:25:54;;;;;;;13.18;8.15;;;;;;;1.38;91.12;101524.78;5063219;28;20044;-35
2024/01/21 11:28:28;;;;;;;9.45;7.50;;;;;;;0.39;94.70;101515.06;5064087;28;20118;-35
2024/01/21 11:31:06;;;;;;;11.70;7.85;;;;;;;1.36;90.84;101514.31;5065164;28;20485;-41
2024/01/21 11:33:31;;;;;;;;;;;;;;;0.80;91.57;101515.59;5066380;28;20111;-37
2024/01/21 11:36:00;;;;;;;11.02;6.85;;;;;;;1.38;91.77;101504.59;5066852;28;20007;-38
2024/01/21 11:38:29;;;;;;;11.85;7.75;;;;;;;1.91;90.99;101492.88;5063845;28;20052;-41
2024/01/21 11:41:03;;;;;;;10.48;7.43;;;;;;;2.99;87.62;101467.16;5065130;28;20094;-37
2024/01/21 11:43:31;;;;;;;13.38;8.25;;;;;;;3.21;83.09;101474.56;5065522;28;20044;-40
2024/01/21 11:45:57;;;;;;;9.93;8.00;;;;;;;3.84;80.33;101476.66;5065028;28;20031;-35
2024/01/21 11:48:29;;;;;;;10.63;7.47;;;;;;;4.70;74.38;101471.78;5064264;28;20021;-35
2024/01/21 11:50:56;;;;;;;15.05;8.38;;;;;;;4.92;72.56;101486.97;5074596;28;20070;-39
2024/01/21 11:53:22;;;;;;;11.20;8.07;;;;;;;3.14;77.65;101479.38;5076879;28;20048;-37
2024/01/21 11:55:48;;;;;;;11.10;8.15;;;;;;;3.71;77.14;101455.53;5077113;28;20085;-39
2024/01/21 11:58:14;;;;;;;10.70;7.70;;;;;;;3.30;76.26;101450.28;5075548;28;20468;-40
2024/01/21 12:00:40;;;;;;;9.35;7.20;;;;;;;3.23;75.74;101448.97;5075688;28;20040;-36
2024/01/21 12:03:06;;;;;;;11.30;7.85;;;;;;;3.52;80.64;101442.72;5072475;28;20388;-37
2024/01/21 12:05:31;;;;;;;10.68;7.35;;;;;;;4.44;73.76;101444.53;5078778;28;20505;-38
2024/01/21 12:07:57;;;;;;;11.82;7.90;;;;;;;3.46;78.65;101445.75;5075368;28;20868;-35
2024/01/21 12:10:23;;;;;;;12.43;7.50;;;;;;;3.49;78.57;101435.00;5074592;28;20167;-37
2024/01/21 12:12:49;;;;;;;11.32;7.60;;;;;;;3.37;78.48;101430.50;5075471;28;20048;-38
2024/01/21 12:15:14;;;;;;;10.02;7.55;;;;;;;4.11;76.50;101436.22;5068527;28;20045;-39
2024/01/21 12:17:40;;;;;;;12.90;7.25;;;;;;;4.08;77.13;101438.13;5062600;28;20037;-38
2024/01/21 12:20:06;;;;;;;9.15;7.18;;;;;;;3.60;81.91;101436.09;5060406;28;20035;-38
2024/01/21 12:22:44;;;;;;;11.55;7.22;;;;;;;3.81;79.27;101443.44;5064068;28;20020;-36
2024/01/21 12:25:11;;;;;;;9.95;7.28;;;;;;;4.20;77.97;101454.09;5060643;28;20492;-38
2024/01/21 12:27:40;;;;;;;9.73;7.32;;;;;;;3.83;77.45;101427.53;5063907;28;20039;-36
2024/01/21 12:30:12;;;;;;;11.15;6.78;;;;;;;3.07;84.63;101420.16;5061756;28;20032;-38
2024/01/21 12:32:38;;;;;;;9.23;6.70;;;;;;;4.32;80.27;101418.97;5062522;28;20028;-37
2024/01/21 12:35:04;;;;;;;9.40;7.07;;;;;;;3.48;82.88;101420.13;5062572;28;20372;-38
2024/01/21 12:37:29;;;;;;;9.93;7.20;;;;;;;3.50;81.67;101434.03;5067803;28;20068;-35
2024/01/21 12:39:55;;;;;;;7.72;6.35;;;;;;;3.69;82.26;101443.41;5071873;28;20035;-35
2024/01/21 12:42:20;;;;;;;11.20;6.93;;;;;;;3.36;85.95;101439.34;5071724;28;20526;-39
2024/01/21 12:44:45;;;;;;;9.43;7.05;;;;;;;4.30;83.51;101439.31;5071729;28;20090;-41
2024/01/21 12:47:11;;;;;;;10.50;7.13;;;;;;;3.06;90.08;101438.66;5071435;28;20131;-37
2024/01/21 12:49:36;;;;;;;9.20;7.18;;;;;;;2.59;92.80;101429.28;5064095;28;20059;-36
2024/01/21 12:52:02;;;;;;;10.95;7.50;;;;;;;3.16;89.55;101429.25;5061278;28;20484;-38
2024/01/21 12:54:27;;;;;;;9.70;7.10;;;;;;;3.11;87.27;101423.41;5063551;28;20044;-36
2024/01/21 12:56:52;;;;;;;9.57;7.00;;;;;;;4.16;82.50;101434.97;5062569;28;20045;-35
2024/01/21 12:59:19;;;;;;;8.70;6.40;;;;;;;3.82;81.47;101433.75;5061749;28;20025;-37
2024/01/21 13:01:44;;;;;;;10.43;7.47;;;;;;;4.02;81.36;101435.06;5060792;28;20024;-40
2024/01/21 13:04:10;;;;;;;10.75;7.40;;;;;;;2.84;88.09;101424.22;5061219;28;20044;-36
2024/01/21 13:06:36;;;;;;;9.52;7.20;;;;;;;3.36;89.11;101418.28;5063241;28;20116;-36
2024/01/21 13:09:02;;;;;;;9.50;7.45;;;;;;;3.88;84.91;101412.25;5062293;28;20032;-35
2024/01/21 13:11:28;;;;;;;9.95;6.32;;;;;;;3.22;86.20;101410.44;5063683;28;20067;-37
2024/01/21 13:13:53;;;;;;;8.35;6.72;;;;;;;3.29;89.18;101402.97;5061671;28;20107;-37
2024/01/21 13:16:19;;;;;;;9.65;7.22;;;;;;;3.74;87.11;101396.50;5059085;28;20033;-37
2024/01/21 13:18:44;;;;;;;10.73;7.22;;;;;;;3.48;88.97;101390.31;5066870;28;20598;-37
2024/01/21 13:21:12;;;;;;;9.50;6.63;;;;;;;3.01;92.02;101386.31;5061398;28;20021;-38
2024/01/21 13:23:37;;;;;;;12.80;7.63;;;;;;;3.43;88.36;101392.41;5064708;28;20534;-35
2024/01/21 13:26:03;;;;;;;10.43;6.90;;;;;;;3.22;88.98;101382.31;5062078;28;20190;-39
2024/01/21 13:28:38;;;;;;;12.32;7.20;;;;;;;3.67;87.36;101393.44;5063231;28;20174;-37
2024/01/21 13:31:04;;;;;;;9.80;7.05;;;;;;;3.65;86.68;101392.69;5060645;28;20037;-39
2024/01/21 13:33:30;;;;;;;11.43;7.20;;;;;;;3.59;86.98;101389.63;5063640;28;20189;-37
2024/01/21 13:35:57;;;;;;;9.52;6.70;;;;;;;3.83;86.82;101395.06;5063192;28;20556;-39
2024/01/21 13:38:26;;;;;;;9.00;7.32;;;;;;;4.01;85.11;101401.72;5062461;28;20041;-35
2024/01/21 13:40:52;;;;;;;10.15;7.28;;;;;;;4.09;84.28;101387.06;5063012;28;20036;-38
2024/01/21 13:43:18;;;;;;;11.45;6.68;;;;;;;3.58;87.17;101391.38;5064246;28;20047;-35
2024/01/21 13:45:43;;;;;;;9.32;7.13;;;;;;;3.32;91.11;101392.22;5066682;28;20044;-38
2024/01/21 13:48:10;;;;;;;11.02;7.22;;;;;;;3.65;87.26;101378.66;5065034;28;20057;-36
2024/01/21 13:50:36;;;;;;;15.93;7.95;;;;;;;2.70;93.60;101366.31;5067130;28;20036;-41
2024/01/21 13:53:03;;;;;;;12.13;8.48;;;;;;;2.79;98.01;101354.38;5068065;28;20037;-38
2024/01/21 13:55:29;;;;;;;9.07;6.73;;;;;;;2.74;95.31;101354.69;5067280;28;20507;-43
2024/01/21 13:57:55;;;;;;;9.80;6.85;;;;;;;2.89;94.72;101366.88;5066792;28;20500;-42
2024/01/21 14:00:25;;;;;;;9.02;6.72;;;;;;;3.80;89.53;101365.31;5064366;28;20047;-44
2024/01/21 14:02:55;;;;;;;10.02;7.07;;;;;;;3.69;87.45;101357.28;5067245;28;20033;-40
2024/01/21 14:05:28;;;;;;;9.30;6.88;;;;;;;3.23;89.85;101362.09;5066275;28;20056;-44
2024/01/21 14:07:54;;;;;;;10.98;7.35;;;;;;;2.92;93.43;101352.66;5065957;28;20051;-43
2024/01/21 14:10:21;;;;;;;8.95;6.30;;;;;;;3.61;90.68;101353.47;5065433;28;20024;-39
2024/01/21 14:12:47;;;;;;;9.82;6.57;;;;;;;3.44;93.00;101341.41;5065340;28;20040;-44
2024/01/21 14:15:12;;;;;;;9.18;6.38;;;;;;;3.74;91.37;101349.91;5064623;28;20044;-42
2024/01/21 14:17:38;;;;;;;7.30;5.80;;;;;;;2.86;96.21;101353.88;5067320;28;20450;-42
2024/01/21 14:20:04;;;;;;;10.27;6.38;;;;;;;3.05;96.98;101355.34;5070521;28;20090;-44
2024/01/21 14:22:30;;;;;;;8.57;5.80;;;;;;;3.25;93.08;101358.38;5074440;28;20035;-36
2024/01/21 14:25:00;;;;;;;9.73;6.55;;;;;;;3.57;92.50;101351.97;5074118;28;20020;-39
2024/01/21 14:27:25;;;;;;;8.95;6.60;;;;;;;3.48;93.47;101351.66;5073991;28;20048;-42
2024/01/21 14:29:57;;;;;;;7.53;5.75;;;;;;;3.62;92.18;101356.00;5073983;28;20042;-43
2024/01/21 14:32:23;;;;;;;9.35;7.03;;;;;;;3.92;91.05;101358.38;5074220;28;20040;-43
2024/01/21 14:34:48;;;;;;;8.35;6.40;;;;;;;3.85;91.42;101357.13;5073983;28;20099;-43
2024/01/21 14:37:14;;;;;;;8.07;6.03;;;;;;;4.06;91.15;101354.81;5073901;28;20056;-46
2024/01/21 14:39:39;;;;;;;7.63;6.22;;;;;;;3.61;91.85;101356.09;5072885;28;20139;-44
2024/01/21 14:42:05;;;;;;;8.32;6.45;;;;;;;3.51;94.63;101356.69;5074014;28;20544;-43
2024/01/21 14:44:30;;;;;;;10.50;6.00;;;;;;;3.63;94.35;101354.19;5076202;28;20044;-36
2024/01/21 14:46:57;;;;;;;8.98;6.03;;;;;;;3.76;93.74;101360.34;5075373;28;20081;-37
2024/01/21 14:49:22;;;;;;;8.60;6.72;;;;;;;3.46;94.34;101355.34;5074310;28;20408;-35
2024/01/21 14:51:48;;;;;;;7.75;6.30;;;;;;;3.06;99.08;101343.88;5074075;28;20040;-37
2024/01/21 14:54:13;;;;;;;11.15;7.05;;;;;;;3.64;95.23;101345.34;5074088;28;20036;-38
2024/01/21 14:56:39;;;;;;;9.35;6.35;;;;;;;3.63;94.63;101331.34;5073976;28;20063;-37
2024/01/21 14:59:07;;;;;;;9.32;6.10;;;;;;;3.69;94.86;101323.03;5076184;28;20033;-37
2024/01/21 15:01:32;;;;;;;8.75;6.55;;;;;;;3.69;94.82;101317.75;5083472;28;20025;-36
2024/01/21 15:03:58;;;;;;;10.02;5.72;;;;;;;3.57;95.63;101336.16;5085997;28;20052;-35
2024/01/21 15:06:26;;;;;;;8.48;6.22;;;;;;;3.58;97.56;101333.41;5088865;28;20056;-36
2024/01/21 15:08:51;;;;;;;8.85;5.95;;;;;;;3.44;97.94;101331.69;5080266;28;20044;-36
2024/01/21 15:11:16;;;;;;;8.10;6.03;;;;;;;3.48;98.83;101340.25;5074120;28;20036;-36
2024/01/21 15:13:44;;;;;;;9.02;5.80;;;;;;;3.34;99.86;101338.53;5074270;28;20033;-37
2024/01/21 15:16:09;;;;;;;9.70;6.43;;;;;;;3.26;100.00;101332.94;5074707;28;20038;-36
2024/01/21 15:18:35;;;;;;;8.80;6.22;;;;;;;3.03;100.00;101342.28;5073999;28;20036;-34
2024/01/21 15:21:01;;;;;;;8.35;6.53;;;;;;;2.94;100.00;101341.09;5073918;28;20025;-34
2024/01/21 15:23:26;;;;;;;8.88;6.70;;;;;;;2.59;100.00;101342.47;5073811;28;20484;-36
2024/01/21 15:25:51;;;;;;;8.18;6.32;;;;;;;2.92;100.00;101337.72;5073727;28;20041;-37
2024/01/21 15:28:17;;;;;;;8.73;6.88;;;;;;;2.84;100.00;101337.34;5073930;28;20074;-35
2024/01/21 15:30:43;;;;;;;8.05;6.07;;;;;;;2.89;100.00;101340.53;5074656;28;20045;-36
2024/01/21 15:33:11;;;;;;;12.30;6.63;;;;;;;3.05;100.00;101356.19;5074163;28;20033;-36
2024/01/21 15:35:37;;;;;;;8.48;6.32;;;;;;;3.02;100.00;101369.56;5074569;28;20040;-34
2024/01/21 15:38:02;;;;;;;9.80;6.45;;;;;;;2.76;100.00;101368.56;5073770;28;20040;-36
2024/01/21 15:40:28;;;;;;;10.70;6.47;;;;;;;2.96;100.00;101365.53;5074295;28;20045;-37
2024/01/21 15:42:55;;;;;;;8.00;6.47;;;;;;;3.03;100.00;101367.78;5074056;28;20488;-36
2024/01/21 15:45:20;;;;;;;10.18;6.45;;;;;;;2.79;100.00;101368.38;5074768;28;20040;-37
2024/01/21 15:47:46;;;;;;;8.70;6.32;;;;;;;2.53;100.00;101366.50;5073760;28;20044;-38
2024/01/21 15:50:11;;;;;;;9.32;6.63;;;;;;;2.73;100.00;101372.22;5074236;28;20032;-36
2024/01/21 15:52:37;;;;;;;7.82;6.03;;;;;;;2.83;100.00;101384.84;5074211;28;20044;-36
2024/01/21 15:55:03;;;;;;;10.38;5.47;;;;;;;2.82;100.00;101384.00;5074018;28;20041;-38
2024/01/21 15:57:28;;;;;;;7.38;5.60;;;;;;;2.69;100.00;101385.69;5073309;28;20105;-38
2024/01/21 15:59:54;;;;;;;10.43;5.97;;;;;;;2.48;100.00;101392.25;5067821;28;20036;-34
2024/01/21 16:02:20;;;;;;;8.95;6.43;;;;;;;2.42;100.00;101385.59;5075015;28;20496;-37
2024/01/21 16:04:46;;;;;;;10.38;6.80;;;;;;;2.17;100.00;101389.69;5072967;28;20051;-34
2024/01/21 16:07:11;;;;;;;9.93;6.82;;;;;;;2.13;100.00;101396.06;5072864;28;20036;-37
2024/01/21 16:09:37;;;;;;;9.57;6.47;;;;;;;1.96;100.00;101403.28;5073580;28;20033;-37
2024/01/21 16:12:02;;;;;;;9.23;6.00;;;;;;;1.95;100.00;101396.31;5073360;28;20392;-37
2024/01/21 16:14:29;;;;;;;10.18;6.03;;;;;;;1.67;100.00;101407.56;5073085;28;20476;-35
2024/01/21 16:16:54;;;;;;;8.93;6.57;;;;;;;1.90;100.00;101415.00;5073447;28;20048;-35
2024/01/21 16:19:20;;;;;;;10.75;6.25;;;;;;;1.51;100.00;101400.59;5073707;28;20031;-35
2024/01/21 16:21:48;;;;;;;10.13;7.05;;;;;;;1.75;100.00;101398.31;5072894;28;20138;-37
2024/01/21 16:24:14;;;;;;;9.52;6.60;;;;;;;1.67;100.00;101399.69;5073130;28;20036;-35
2024/01/21 16:26:40;;;;;;;8.18;5.97;;;;;;;1.77;100.00;101403.50;5073187;28;20036;-37
2024/01/21 16:29:05;;;;;;;7.60;5.80;;;;;;;1.72;100.00;101401.13;5073078;28;20120;-37
2024/01/21 16:31:31;;;;;;;9.32;6.30;;;;;;;1.39;100.00;101405.69;5071675;28;20123;-37
2024/01/21 16:33:57;;;;;;;6.53;5.88;;;;;;;1.55;100.00;101401.25;5072598;28;20075;-37
2024/01/21 16:36:22;;;;;;;8.68;6.15;;;;;;;1.42;100.00;101403.72;5073763;28;20522;-36